Time;durP1;ratioP1;P1;durP2;ratioP2;P2;SDS_P1;SDS_P2;PMS_P1;PMS_P2;Temp;Humidity;BMP_temperature;BMP_pressure;BME280_temperature;BME280_humidity;BME280_pressure;Samples;Min_cycle;Max_cycle;Signal;HPM_P1;HPM_P2
2022/08/25 00:00:34;;;;;;;22.08;4.53;;;;;;;-144.43;100.00;67396.00;5086975;28;20032;-60
2022/08/25 00:04:00;;;;;;;27.23;4.03;;;;;;;-144.43;100.00;67396.00;5086418;28;20059;-60
2022/08/25 00:07:25;;;;;;;23.75;3.58;;;;;;;-144.43;100.00;67396.00;5087580;28;20493;-60
2022/08/25 00:10:51;;;;;;;43.92;5.95;;;;;;;-144.43;100.00;67396.00;5088883;28;20399;-60
2022/08/25 00:14:18;;;;;;;29.20;5.05;;;;;;;-144.43;100.00;67396.00;5084596;28;20506;-59
2022/08/25 00:17:44;;;;;;;34.90;5.22;;;;;;;-144.43;100.00;67396.00;5092337;28;20137;-60
2022/08/25 00:21:09;;;;;;;27.75;4.35;;;;;;;-144.43;100.00;67396.00;5074816;28;20100;-59
2022/08/25 00:24:35;;;;;;;34.63;5.00;;;;;;;-144.43;100.00;67396.00;5077754;28;20396;-60
2022/08/25 00:28:02;;;;;;;28.20;3.97;;;;;;;-144.43;100.00;67396.00;5092398;28;20042;-60
2022/08/25 00:31:27;;;;;;;47.83;4.60;;;;;;;-144.43;100.00;67396.00;5092250;28;20043;-60
2022/08/25 00:34:52;;;;;;;41.95;4.05;;;;;;;-144.43;100.00;67396.00;5089468;28;20040;-60
2022/08/25 00:38:18;;;;;;;32.42;3.33;;;;;;;-144.43;100.00;67396.00;5079915;28;20505;-60
2022/08/25 00:41:44;;;;;;;31.25;4.00;;;;;;;-144.43;100.00;67396.00;5092246;28;20127;-59
2022/08/25 00:45:10;;;;;;;33.38;4.57;;;;;;;-144.43;100.00;67396.00;5075082;28;20039;-60
2022/08/25 00:48:37;;;;;;;33.97;4.68;;;;;;;-144.43;100.00;67396.00;5077267;28;20398;-59
2022/08/25 00:52:04;;;;;;;18.15;2.45;;;;;;;-144.43;100.00;67396.00;5092107;28;20029;-59
2022/08/25 00:55:38;;;;;;;14.75;2.03;;;;;;;-144.43;100.00;67396.00;5092148;28;20089;-59
2022/08/25 00:59:25;;;;;;;18.67;2.35;;;;;;;-144.43;100.00;67396.00;5075111;28;20098;-59
2022/08/25 01:02:52;;;;;;;13.77;3.08;;;;;;;-144.43;100.00;67396.00;5085789;28;20069;-59
2022/08/25 01:06:18;;;;;;;15.02;1.92;;;;;;;-144.43;100.00;67396.00;5079513;28;20040;-59
2022/08/25 01:09:45;;;;;;;17.20;2.40;;;;;;;-144.43;100.00;67396.00;5091727;28;20064;-59
2022/08/25 01:13:13;;;;;;;13.27;1.75;;;;;;;-144.43;100.00;67396.00;5074937;28;20040;-59
2022/08/25 01:16:39;;;;;;;15.95;2.50;;;;;;;-144.43;100.00;67396.00;5076219;28;20123;-60
2022/08/25 01:20:04;;;;;;;;;;;;;;;-144.43;100.00;67396.00;5092429;28;20059;-60
2022/08/25 01:23:31;;;;;;;16.13;2.05;;;;;;;-144.43;100.00;67396.00;5084637;28;19931;-60
2022/08/25 01:27:06;;;;;;;14.73;2.50;;;;;;;-144.43;100.00;67396.00;5088747;28;20564;-61
2022/08/25 01:30:32;;;;;;;16.03;2.30;;;;;;;-144.43;100.00;67396.00;5091503;28;20044;-60
2022/08/25 01:34:00;;;;;;;12.40;2.00;;;;;;;-144.43;100.00;67396.00;5091934;28;20032;-60
2022/08/25 01:37:26;;;;;;;18.70;2.58;;;;;;;-144.43;100.00;67396.00;5094630;28;20510;-60
2022/08/25 01:40:51;;;;;;;;;;;;;;;-144.43;100.00;67396.00;5093013;28;20119;-61
2022/08/25 01:44:28;;;;;;;13.18;1.90;;;;;;;-144.43;100.00;67396.00;5094809;28;19916;-60
2022/08/25 01:47:54;;;;;;;9.90;2.10;;;;;;;-144.43;100.00;67396.00;5110009;28;20459;-61
2022/08/25 01:51:20;;;;;;;14.32;1.88;;;;;;;-144.43;100.00;67396.00;5082619;28;20033;-61
2022/08/25 01:54:46;;;;;;;11.25;2.15;;;;;;;-144.43;100.00;67396.00;5089576;28;20098;-61
2022/08/25 01:58:11;;;;;;;10.20;2.05;;;;;;;-144.43;100.00;67396.00;5083534;28;20039;-60
2022/08/25 02:01:42;;;;;;;11.23;2.40;;;;;;;-144.43;100.00;67396.00;5093098;28;20044;-60
2022/08/25 02:05:08;;;;;;;17.58;2.30;;;;;;;-144.43;100.00;67396.00;5092767;28;20044;-61
2022/08/25 02:08:35;;;;;;;14.63;2.40;;;;;;;-144.43;100.00;67396.00;5092520;28;20051;-62
2022/08/25 02:12:00;;;;;;;33.13;3.28;;;;;;;-144.43;100.00;67396.00;5087936;28;20032;-60
2022/08/25 02:15:25;;;;;;;16.15;2.50;;;;;;;-144.43;100.00;67396.00;5091791;28;20036;-60
2022/08/25 02:18:51;;;;;;;11.60;2.40;;;;;;;-144.43;100.00;67396.00;5089726;28;20119;-60
2022/08/25 02:22:17;;;;;;;18.73;2.80;;;;;;;-144.43;100.00;67396.00;5091778;28;20060;-60
2022/08/25 02:25:43;;;;;;;22.95;3.00;;;;;;;-144.43;100.00;67396.00;5093467;28;20101;-61
2022/08/25 02:29:09;;;;;;;14.70;2.65;;;;;;;-144.43;100.00;67396.00;5095932;28;20047;-61
2022/08/25 02:32:35;;;;;;;14.02;2.67;;;;;;;-144.43;100.00;67396.00;5091910;28;20060;-61
2022/08/25 02:36:00;;;;;;;17.85;2.92;;;;;;;-144.43;100.00;67396.00;5091654;28;20168;-61
2022/08/25 02:39:25;;;;;;;;;;;;;;;-144.43;100.00;67396.00;5092589;28;20036;-60
2022/08/25 02:42:50;;;;;;;28.77;3.55;;;;;;;-144.43;100.00;67396.00;5092961;28;19916;-60
2022/08/25 02:46:18;;;;;;;17.75;3.30;;;;;;;-144.43;100.00;67396.00;5093493;28;20035;-61
2022/08/25 02:49:44;;;;;;;16.35;3.90;;;;;;;-144.43;100.00;67396.00;5093085;28;20035;-62
2022/08/25 02:53:09;;;;;;;;;;;;;;;-144.43;100.00;67396.00;5093595;28;20044;-61
2022/08/25 02:56:34;;;;;;;21.25;3.03;;;;;;;-144.43;100.00;67396.00;5093321;28;19938;-61
2022/08/25 03:00:01;;;;;;;15.32;3.28;;;;;;;-144.43;100.00;67396.00;5093470;28;20107;-61
2022/08/25 03:03:26;;;;;;;21.75;3.10;;;;;;;-144.43;100.00;67396.00;5091464;28;20032;-61
2022/08/25 03:06:52;;;;;;;17.35;3.40;;;;;;;-144.43;100.00;67396.00;5091065;28;20036;-60
2022/08/25 03:10:18;;;;;;;12.23;2.55;;;;;;;-144.43;100.00;67396.00;5090948;28;20505;-61
2022/08/25 03:13:44;;;;;;;27.17;3.65;;;;;;;-144.43;100.00;67396.00;5093471;28;20514;-61
2022/08/25 03:17:10;;;;;;;18.25;3.38;;;;;;;-144.43;100.00;67396.00;5092771;28;20521;-61
2022/08/25 03:20:35;;;;;;;18.85;3.60;;;;;;;-144.43;100.00;67396.00;5078755;28;20446;-61
2022/08/25 03:24:01;;;;;;;17.38;3.13;;;;;;;-144.43;100.00;67396.00;5093523;28;20443;-59
2022/08/25 03:27:29;;;;;;;19.67;3.30;;;;;;;-144.43;100.00;67396.00;5093543;28;20043;-61
2022/08/25 03:30:54;;;;;;;17.17;3.22;;;;;;;-144.43;100.00;67396.00;5083742;28;20043;-60
2022/08/25 03:34:20;;;;;;;28.10;3.85;;;;;;;-144.43;100.00;67396.00;5085634;28;20050;-61
2022/08/25 03:37:47;;;;;;;13.38;2.72;;;;;;;-144.43;100.00;67396.00;5093635;28;20034;-58
2022/08/25 03:41:15;;;;;;;12.57;2.00;;;;;;;-144.43;100.00;67396.00;5091516;28;20032;-59
2022/08/25 03:44:41;;;;;;;13.10;2.00;;;;;;;-144.43;100.00;67396.00;5090514;28;20036;-59
2022/08/25 03:48:06;;;;;;;10.18;1.83;;;;;;;-144.43;100.00;67396.00;5088167;28;20513;-59
2022/08/25 03:51:33;;;;;;;7.85;1.50;;;;;;;-144.43;100.00;67396.00;5091561;28;20036;-59
2022/08/25 03:55:00;;;;;;;17.80;2.10;;;;;;;-144.43;100.00;67396.00;5092107;28;20454;-59
2022/08/25 03:58:26;;;;;;;34.85;2.97;;;;;;;-144.43;100.00;67396.00;5093201;28;20043;-61
2022/08/25 04:01:51;;;;;;;16.10;1.95;;;;;;;-144.43;100.00;67396.00;5079804;28;20082;-58
2022/08/25 04:05:16;;;;;;;22.00;2.60;;;;;;;-144.43;100.00;67396.00;5072474;28;20083;-59
2022/08/25 04:08:42;;;;;;;20.25;2.80;;;;;;;-144.43;100.00;67396.00;5073701;28;20032;-59
2022/08/25 04:12:12;;;;;;;21.42;3.20;;;;;;;-144.43;100.00;67396.00;5090264;28;20509;-61
2022/08/25 04:15:41;;;;;;;17.27;2.88;;;;;;;-144.43;100.00;67396.00;5088427;28;20036;-61
2022/08/25 04:19:08;;;;;;;16.45;2.65;;;;;;;-144.43;100.00;67396.00;5092680;28;20100;-62
2022/08/25 04:22:35;;;;;;;21.83;3.65;;;;;;;-144.43;100.00;67396.00;5078075;28;20564;-62
2022/08/25 04:26:01;;;;;;;19.63;2.85;;;;;;;-144.43;100.00;67396.00;5071595;28;20085;-59
2022/08/25 04:29:27;;;;;;;24.23;2.83;;;;;;;-144.43;100.00;67396.00;5080312;28;20573;-62
2022/08/25 04:32:52;;;;;;;19.10;3.10;;;;;;;-144.43;100.00;67396.00;5090297;28;20031;-61
2022/08/25 04:36:18;;;;;;;45.60;4.28;;;;;;;-144.43;100.00;67396.00;5081103;28;20067;-62
2022/08/25 04:39:44;;;;;;;22.25;2.88;;;;;;;-144.43;100.00;67396.00;5072405;28;20064;-60
2022/08/25 04:43:09;;;;;;;;;;;;;;;-144.43;100.00;67396.00;5077282;28;20402;-61
2022/08/25 04:46:36;;;;;;;26.02;3.47;;;;;;;-144.43;100.00;67396.00;5076085;28;20017;-61
2022/08/25 04:50:02;;;;;;;32.47;3.92;;;;;;;-144.43;100.00;67396.00;5073786;28;20082;-63
2022/08/25 04:53:27;;;;;;;;;;;;;;;-144.43;100.00;67396.00;5073576;28;20036;-63
2022/08/25 04:56:52;;;;;;;35.88;4.47;;;;;;;-144.43;100.00;67396.00;5091398;28;20009;-62
2022/08/25 05:00:18;;;;;;;34.47;4.45;;;;;;;-144.43;100.00;67396.00;5081696;28;20028;-62
2022/08/25 05:03:44;;;;;;;28.53;4.37;;;;;;;-144.43;100.00;67396.00;5091067;28;20051;-60
2022/08/25 05:07:10;;;;;;;34.30;4.63;;;;;;;-144.43;100.00;67396.00;5092016;28;20047;-59
2022/08/25 05:10:38;;;;;;;43.55;5.20;;;;;;;-144.43;100.00;67396.00;5086792;28;20056;-61
2022/08/25 05:14:04;;;;;;;35.05;5.20;;;;;;;-144.43;100.00;67396.00;5088256;28;20210;-61
2022/08/25 05:17:29;;;;;;;39.40;5.07;;;;;;;-144.43;100.00;67396.00;5090236;28;20071;-61
2022/08/25 05:20:55;;;;;;;27.97;5.80;;;;;;;-144.43;100.00;67396.00;5091050;28;20078;-60
2022/08/25 05:24:21;;;;;;;;;;;;;;;-144.43;100.00;67396.00;5093314;28;20039;-59
2022/08/25 05:27:46;;;;;;;37.22;5.72;;;;;;;-144.43;100.00;67396.00;5094172;28;19916;-61
2022/08/25 05:31:13;;;;;;;35.43;5.97;;;;;;;-144.43;100.00;67396.00;5094677;28;20490;-61
2022/08/25 05:34:39;;;;;;;22.77;6.07;;;;;;;-144.43;100.00;67396.00;5089345;28;20033;-61
2022/08/25 05:38:04;;;;;;;30.70;6.63;;;;;;;-144.43;100.00;67396.00;5093993;28;20032;-61
2022/08/25 05:41:30;;;;;;;27.67;5.40;;;;;;;-144.43;100.00;67396.00;5084555;28;20086;-59
2022/08/25 05:44:55;;;;;;;;;;;;;;;-144.43;100.00;67396.00;5095113;28;20029;-61
2022/08/25 05:48:21;;;;;;;36.80;11.55;;;;;;;-144.43;100.00;67396.00;5094371;28;20388;-61
2022/08/25 05:51:50;;;;;;;22.42;10.20;;;;;;;-144.43;100.00;67396.00;5090737;28;20106;-62
2022/08/25 05:55:15;;;;;;;25.77;12.70;;;;;;;-144.43;100.00;67396.00;5093715;28;20039;-62
2022/08/25 05:58:42;;;;;;;22.25;8.13;;;;;;;-144.43;100.00;67396.00;5090728;28;20025;-61
2022/08/25 06:05:51;;;;;;;14.15;5.80;;;;;;;-144.43;100.00;67396.00;5089167;28;20085;-62
2022/08/25 06:09:17;;;;;;;20.15;7.45;;;;;;;-144.43;100.00;67396.00;5091561;28;20081;-63
2022/08/25 06:12:43;;;;;;;19.40;8.70;;;;;;;-144.43;100.00;67396.00;5090421;28;20036;-60
2022/08/25 06:16:10;;;;;;;19.15;7.95;;;;;;;-144.43;100.00;67396.00;5094170;28;20024;-62
2022/08/25 06:19:35;;;;;;;18.85;8.68;;;;;;;-144.43;100.00;67396.00;5092693;28;20031;-62
2022/08/25 06:23:00;;;;;;;20.80;8.33;;;;;;;-144.43;100.00;67396.00;5094048;28;20050;-60
2022/08/25 06:26:25;;;;;;;18.83;9.07;;;;;;;-144.43;100.00;67396.00;5092561;28;20032;-61
2022/08/25 06:29:51;;;;;;;19.27;6.05;;;;;;;-144.43;100.00;67396.00;5094196;28;20036;-62
2022/08/25 06:33:16;;;;;;;20.15;5.57;;;;;;;-144.43;100.00;67396.00;5092250;28;20043;-61
2022/08/25 06:36:42;;;;;;;26.55;5.93;;;;;;;-144.43;100.00;67396.00;5094001;28;20050;-60
2022/08/25 06:40:09;;;;;;;22.45;5.38;;;;;;;-144.43;100.00;67396.00;5094207;28;20040;-61
2022/08/25 06:43:36;;;;;;;16.70;6.20;;;;;;;-144.43;100.00;67396.00;5094052;28;20043;-59
2022/08/25 06:47:11;;;;;;;18.50;5.05;;;;;;;-144.43;100.00;67396.00;5076963;28;20047;-60
2022/08/25 06:50:40;;;;;;;14.07;4.70;;;;;;;-144.43;100.00;67396.00;5079029;28;20039;-59
2022/08/25 06:54:06;;;;;;;12.18;4.35;;;;;;;-144.43;100.00;67396.00;5094062;28;20036;-61
2022/08/25 06:57:34;;;;;;;14.10;4.57;;;;;;;-144.43;100.00;67396.00;5093868;28;20043;-61
2022/08/25 07:01:15;;;;;;;16.10;5.57;;;;;;;-144.43;100.00;67396.00;5076849;28;20047;-61
2022/08/25 07:04:40;;;;;;;15.35;7.75;;;;;;;-144.43;100.00;67396.00;5088660;28;20122;-62
2022/08/25 07:08:06;;;;;;;14.57;6.75;;;;;;;-144.43;100.00;67396.00;5082922;28;20071;-60
2022/08/25 07:11:33;;;;;;;15.07;5.77;;;;;;;-144.43;100.00;67396.00;5102621;28;20106;-58
2022/08/25 07:15:03;;;;;;;13.20;5.60;;;;;;;-144.43;100.00;67396.00;5106223;28;20110;-60
2022/08/25 07:18:28;;;;;;;18.13;8.15;;;;;;;-144.43;100.00;67396.00;5093501;28;20040;-59
2022/08/25 07:21:53;;;;;;;18.10;6.83;;;;;;;-144.43;100.00;67396.00;5093257;28;20043;-59
2022/08/25 07:25:19;;;;;;;18.70;6.23;;;;;;;-144.43;100.00;67396.00;5093288;28;20099;-60
2022/08/25 07:28:44;;;;;;;19.95;6.57;;;;;;;-144.43;100.00;67396.00;5077121;28;20039;-60
2022/08/25 07:32:10;;;;;;;15.80;6.03;;;;;;;-144.43;100.00;67396.00;5092699;28;20048;-61
2022/08/25 07:35:36;;;;;;;17.92;6.07;;;;;;;-144.43;100.00;67396.00;5086785;28;20036;-60
2022/08/25 07:39:04;;;;;;;13.27;5.32;;;;;;;-144.43;100.00;67396.00;5089030;28;20040;-60
2022/08/25 07:42:30;;;;;;;17.02;5.40;;;;;;;-144.43;100.00;67396.00;5086769;28;20032;-60
2022/08/25 07:45:55;;;;;;;29.33;6.30;;;;;;;-144.43;100.00;67396.00;5093247;28;20063;-60
2022/08/25 07:49:22;;;;;;;16.53;5.30;;;;;;;-144.43;100.00;67396.00;5092567;28;20036;-60
2022/08/25 07:52:47;;;;;;;24.63;6.32;;;;;;;-144.43;100.00;67396.00;5089397;28;20043;-60
2022/08/25 07:56:14;;;;;;;19.13;7.75;;;;;;;-144.43;100.00;67396.00;5081219;28;20028;-62
2022/08/25 07:59:40;;;;;;;15.35;6.57;;;;;;;-144.43;100.00;67396.00;5092531;28;20561;-60
2022/08/25 08:03:08;;;;;;;17.98;6.07;;;;;;;-144.43;100.00;67396.00;5086664;28;20112;-60
2022/08/25 08:06:33;;;;;;;19.77;7.53;;;;;;;-144.43;100.00;67396.00;5092469;28;20157;-60
2022/08/25 08:09:59;;;;;;;16.43;7.17;;;;;;;-144.43;100.00;67396.00;5092508;28;20043;-60
2022/08/25 08:13:25;;;;;;;22.03;6.40;;;;;;;-144.43;100.00;67396.00;5092495;28;20078;-61
2022/08/25 08:16:50;;;;;;;15.95;6.70;;;;;;;-144.43;100.00;67396.00;5075674;28;20024;-61
2022/08/25 08:20:16;;;;;;;17.38;6.70;;;;;;;-144.43;100.00;67396.00;5080561;28;20040;-61
2022/08/25 08:23:41;;;;;;;16.08;4.45;;;;;;;-144.43;100.00;67396.00;5092428;28;20035;-61
2022/08/25 08:27:07;;;;;;;13.80;5.27;;;;;;;-144.43;100.00;67396.00;5075423;28;20119;-61
2022/08/25 08:30:35;;;;;;;14.60;6.15;;;;;;;-144.43;100.00;67396.00;5078010;28;20037;-61
2022/08/25 08:34:00;;;;;;;19.60;5.20;;;;;;;-144.43;100.00;67396.00;5081976;28;20380;-60
2022/08/25 08:37:26;;;;;;;13.57;5.70;;;;;;;-144.43;100.00;67396.00;5087252;28;20040;-61
2022/08/25 08:45:13;;;;;;;12.52;6.03;;;;;;;-144.43;100.00;67396.00;5092897;28;20032;-62
2022/08/25 08:48:52;;;;;;;18.73;7.18;;;;;;;-144.43;100.00;67396.00;5091335;28;20099;-61
2022/08/25 08:52:23;;;;;;;19.52;10.30;;;;;;;-144.43;100.00;67396.00;5096496;28;20051;-60
2022/08/25 08:56:00;;;;;;;19.00;9.43;;;;;;;-144.43;100.00;67396.00;5096249;28;20051;-61
2022/08/25 08:59:40;;;;;;;23.08;10.30;;;;;;;-144.43;100.00;67396.00;5096007;28;20426;-61
2022/08/25 09:03:15;;;;;;;23.08;10.40;;;;;;;-144.43;100.00;67396.00;5090301;28;20514;-60
2022/08/25 09:06:49;;;;;;;20.05;8.90;;;;;;;-144.43;100.00;67396.00;5095830;28;20052;-60
2022/08/25 09:10:27;;;;;;;17.23;7.22;;;;;;;-144.43;100.00;67396.00;5096054;28;20040;-60
2022/08/25 09:14:17;;;;;;;16.33;6.70;;;;;;;-144.43;100.00;67396.00;5095831;28;20486;-61
2022/08/25 09:18:06;;;;;;;13.75;5.90;;;;;;;-144.43;100.00;67396.00;5095755;28;20036;-60
2022/08/25 09:22:05;;;;;;;16.38;5.78;;;;;;;-144.43;100.00;67396.00;5095807;28;20090;-60
2022/08/25 09:25:40;;;;;;;16.00;5.47;;;;;;;-144.43;100.00;67396.00;5081404;28;20029;-61
2022/08/25 09:29:10;;;;;;;13.52;4.60;;;;;;;-144.43;100.00;67396.00;5092873;28;20086;-61
2022/08/25 09:32:41;;;;;;;11.07;3.60;;;;;;;-144.43;100.00;67396.00;5089574;28;20032;-59
2022/08/25 09:36:12;;;;;;;9.52;3.60;;;;;;;-144.43;100.00;67396.00;5084887;28;20139;-59
2022/08/25 09:39:37;;;;;;;10.98;3.70;;;;;;;-144.43;100.00;67396.00;5095321;28;20486;-60
2022/08/25 09:43:16;;;;;;;10.87;3.50;;;;;;;-144.43;100.00;67396.00;5078132;28;20040;-61
2022/08/25 09:47:02;;;;;;;10.27;2.72;;;;;;;-144.43;100.00;67396.00;5079514;28;20089;-61
2022/08/25 09:50:32;;;;;;;8.57;2.80;;;;;;;-144.43;100.00;67396.00;5095477;28;20032;-61
2022/08/25 09:54:18;;;;;;;11.05;3.53;;;;;;;-144.43;100.00;67396.00;5093813;28;20051;-61
2022/08/25 09:57:49;;;;;;;16.88;3.60;;;;;;;-144.43;100.00;67396.00;5095059;28;20040;-60
2022/08/25 10:01:21;;;;;;;11.93;3.33;;;;;;;-144.43;100.00;67396.00;5078076;28;20044;-61
2022/08/25 10:04:55;;;;;;;26.05;4.05;;;;;;;-144.43;100.00;67396.00;5090848;28;20052;-61
2022/08/25 10:08:52;;;;;;;15.13;2.45;;;;;;;-144.43;100.00;67396.00;5087358;28;20040;-59
2022/08/25 10:12:35;;;;;;;16.23;3.03;;;;;;;-144.43;100.00;67396.00;5082549;28;20551;-61
2022/08/25 10:16:24;;;;;;;14.20;3.03;;;;;;;-144.43;100.00;67396.00;5094795;28;20040;-61
2022/08/25 10:20:10;;;;;;;18.48;3.30;;;;;;;-144.43;100.00;67396.00;5094583;28;20043;-61
2022/08/25 10:23:39;;;;;;;15.10;3.53;;;;;;;-144.43;100.00;67396.00;5094488;28;20097;-61
2022/08/25 10:27:33;;;;;;;15.85;3.47;;;;;;;-144.43;100.00;67396.00;5077535;28;20509;-61
2022/08/25 10:31:13;;;;;;;22.85;4.03;;;;;;;-144.43;100.00;67396.00;5078522;28;20970;-59
2022/08/25 10:34:58;;;;;;;19.35;3.70;;;;;;;-144.43;100.00;67396.00;5089468;28;20114;-61
2022/08/25 10:38:43;;;;;;;23.05;3.85;;;;;;;-144.43;100.00;67396.00;5087152;28;20130;-61
2022/08/25 10:42:49;;;;;;;16.15;3.85;;;;;;;-144.43;100.00;67396.00;5081490;28;20506;-61
2022/08/25 10:46:26;;;;;;;17.10;3.40;;;;;;;-144.43;100.00;67396.00;5091236;28;20699;-61
2022/08/25 10:50:30;;;;;;;30.02;4.28;;;;;;;-144.43;100.00;67396.00;5085441;28;20487;-60
2022/08/25 10:54:11;;;;;;;27.00;4.20;;;;;;;-144.43;100.00;67396.00;5093839;28;20042;-62
2022/08/25 10:57:51;;;;;;;21.23;4.25;;;;;;;-144.43;100.00;67396.00;5093877;28;20044;-61
2022/08/25 11:01:27;;;;;;;20.50;4.03;;;;;;;-144.43;100.00;67396.00;5077164;28;20058;-61
2022/08/25 11:05:06;;;;;;;21.43;4.53;;;;;;;-144.43;100.00;67396.00;5090931;28;20052;-61
2022/08/25 11:09:07;;;;;;;22.30;4.10;;;;;;;-144.43;100.00;67396.00;5079276;28;20041;-61
2022/08/25 11:12:42;;;;;;;21.73;3.47;;;;;;;-144.43;100.00;67396.00;5082962;28;20115;-59
2022/08/25 11:16:34;;;;;;;20.60;2.88;;;;;;;-144.43;100.00;67396.00;5093634;28;20074;-61
2022/08/25 11:20:16;;;;;;;18.77;2.35;;;;;;;-144.43;100.00;67396.00;5093542;28;20036;-61
2022/08/25 11:23:49;;;;;;;15.90;2.50;;;;;;;-144.43;100.00;67396.00;5093292;28;20082;-61
2022/08/25 11:27:21;;;;;;;12.70;2.10;;;;;;;-144.43;100.00;67396.00;5076282;28;20028;-60
2022/08/25 11:31:07;;;;;;;11.32;2.30;;;;;;;-144.43;100.00;67396.00;5076863;28;20036;-61
2022/08/25 11:34:35;;;;;;;11.20;2.30;;;;;;;-144.43;100.00;67396.00;5087483;28;20036;-60
2022/08/25 11:38:35;;;;;;;9.55;1.90;;;;;;;-144.43;100.00;67396.00;5083049;28;20390;-60
2022/08/25 11:42:19;;;;;;;11.95;1.65;;;;;;;-144.43;100.00;67396.00;5092921;28;20100;-60
2022/08/25 11:45:49;;;;;;;11.30;1.83;;;;;;;-144.43;100.00;67396.00;5093107;28;20501;-61
2022/08/25 11:49:39;;;;;;;9.25;2.08;;;;;;;-144.43;100.00;67396.00;5076040;28;20044;-60
2022/08/25 11:53:35;;;;;;;8.00;1.90;;;;;;;-144.43;100.00;67396.00;5098033;28;20506;-61
2022/08/25 11:57:05;;;;;;;7.00;1.88;;;;;;;-144.43;100.00;67396.00;5091061;28;20051;-61
2022/08/25 12:00:49;;;;;;;6.95;1.70;;;;;;;-144.43;100.00;67396.00;5086703;28;20154;-60
2022/08/25 12:04:35;;;;;;;8.32;1.60;;;;;;;-144.43;100.00;67396.00;5084802;28;20039;-61
2022/08/25 12:11:56;;;;;;;8.90;2.60;;;;;;;-144.43;100.00;67396.00;5092442;28;20156;-61
2022/08/25 12:15:31;;;;;;;11.13;2.42;;;;;;;-144.43;100.00;67396.00;5092048;28;20035;-61
2022/08/25 12:19:26;;;;;;;7.72;2.08;;;;;;;-144.43;100.00;67396.00;5091219;28;20407;-60
2022/08/25 12:22:54;;;;;;;10.07;2.20;;;;;;;-144.43;100.00;67396.00;5088898;28;20136;-61
2022/08/25 12:26:33;;;;;;;8.60;2.00;;;;;;;-144.43;100.00;67396.00;5090607;28;20044;-61
2022/08/25 12:30:21;;;;;;;5.93;2.30;;;;;;;-144.43;100.00;67396.00;5082612;28;20090;-60
2022/08/25 12:33:46;;;;;;;9.25;2.90;;;;;;;-144.43;100.00;67396.00;5091621;28;20036;-61
2022/08/25 12:37:25;;;;;;;7.43;2.70;;;;;;;-144.43;100.00;67396.00;5089087;28;20032;-61
2022/08/25 12:41:03;;;;;;;11.02;2.45;;;;;;;-144.43;100.00;67396.00;5088541;28;20486;-61
2022/08/25 12:44:37;;;;;;;6.80;1.95;;;;;;;-144.43;100.00;67396.00;5087556;28;20036;-60
2022/08/25 12:48:28;;;;;;;8.43;2.10;;;;;;;-144.43;100.00;67396.00;5091489;28;20028;-61
2022/08/25 12:52:17;;;;;;;21.83;2.25;;;;;;;-144.43;100.00;67396.00;5091925;28;20409;-62
2022/08/25 12:55:53;;;;;;;8.05;1.85;;;;;;;-144.43;100.00;67396.00;5089195;28;20070;-60
2022/08/25 12:59:20;;;;;;;15.85;2.20;;;;;;;-144.43;100.00;67396.00;5088782;28;20036;-61
2022/08/25 13:03:12;;;;;;;25.60;2.47;;;;;;;-144.43;100.00;67396.00;5091104;28;20490;-62
2022/08/25 13:06:59;;;;;;;11.85;2.00;;;;;;;-144.43;100.00;67396.00;5091261;28;20514;-62
2022/08/25 13:10:50;;;;;;;13.05;2.20;;;;;;;-144.43;100.00;67396.00;5089735;28;20056;-61
2022/08/25 13:14:50;;;;;;;11.10;2.60;;;;;;;-144.43;100.00;67396.00;5091408;28;20040;-62
2022/08/25 13:18:27;;;;;;;14.60;2.50;;;;;;;-144.43;100.00;67396.00;5076293;28;20044;-62
2022/08/25 13:22:13;;;;;;;11.35;2.60;;;;;;;-144.43;100.00;67396.00;5078658;28;20120;-62
2022/08/25 13:25:46;;;;;;;18.63;2.97;;;;;;;-144.43;100.00;67396.00;5105523;28;20032;-61
2022/08/25 13:29:21;;;;;;;17.73;2.67;;;;;;;-144.43;100.00;67396.00;5089279;28;20118;-60
2022/08/25 13:32:51;;;;;;;21.83;3.50;;;;;;;-144.43;100.00;67396.00;5097153;28;20506;-59
2022/08/25 13:40:21;;;;;;;28.15;10.85;;;;;;;-144.43;100.00;67396.00;5079312;28;20024;-60
2022/08/25 13:43:47;;;;;;;28.20;8.80;;;;;;;-144.43;100.00;67396.00;5075094;28;20036;-62
2022/08/25 13:47:31;;;;;;;16.23;6.57;;;;;;;-144.43;100.00;67396.00;5092381;28;20168;-61
2022/08/25 13:51:19;;;;;;;16.90;6.68;;;;;;;-144.43;100.00;67396.00;5092870;28;20038;-60
2022/08/25 13:54:49;;;;;;;18.58;5.35;;;;;;;-144.43;100.00;67396.00;5081275;28;20539;-62
2022/08/25 13:58:23;;;;;;;29.90;7.00;;;;;;;-144.43;100.00;67396.00;5095191;28;20036;-61
2022/08/25 14:02:01;;;;;;;23.15;6.18;;;;;;;-144.43;100.00;67396.00;5095233;28;20028;-62
2022/08/25 14:05:41;;;;;;;23.80;7.40;;;;;;;-144.43;100.00;67396.00;5090345;28;20059;-62
2022/08/25 14:09:35;;;;;;;19.83;5.40;;;;;;;-144.43;100.00;67396.00;5092688;28;20438;-61
2022/08/25 14:13:14;;;;;;;19.75;4.10;;;;;;;-144.43;100.00;67396.00;5093188;28;20422;-62
2022/08/25 14:16:50;;;;;;;23.50;4.20;;;;;;;-144.43;100.00;67396.00;5093532;28;20040;-61
2022/08/25 14:20:27;;;;;;;34.58;4.88;;;;;;;-144.43;100.00;67396.00;5091338;28;20036;-63
2022/08/25 14:23:56;;;;;;;16.67;4.43;;;;;;;-144.43;100.00;67396.00;5093882;28;20051;-62
2022/08/25 14:27:22;;;;;;;14.68;4.50;;;;;;;-144.43;100.00;67396.00;5093658;28;20039;-63
2022/08/25 14:30:52;;;;;;;;;;;;;;;-144.43;100.00;67396.00;5094906;28;20047;-60
2022/08/25 14:34:24;;;;;;;20.25;4.78;;;;;;;-144.43;100.00;67396.00;5082689;28;20441;-62
2022/08/25 14:37:50;;;;;;;20.30;3.92;;;;;;;-144.43;100.00;67396.00;5093776;28;20036;-61
2022/08/25 14:41:15;;;;;;;21.98;4.80;;;;;;;-144.43;100.00;67396.00;5076587;28;20115;-61
2022/08/25 14:44:40;;;;;;;28.87;5.37;;;;;;;-144.43;100.00;67396.00;5085898;28;20044;-61
2022/08/25 14:48:08;;;;;;;26.77;4.83;;;;;;;-144.43;100.00;67396.00;5087414;28;20479;-60
2022/08/25 14:51:34;;;;;;;33.90;5.35;;;;;;;-144.43;100.00;67396.00;5087217;28;20494;-60
2022/08/25 14:55:02;;;;;;;21.95;4.28;;;;;;;-144.43;100.00;67396.00;5095148;28;20485;-59
2022/08/25 14:58:27;;;;;;;25.20;4.72;;;;;;;-144.43;100.00;67396.00;5089634;28;20028;-60
2022/08/25 15:01:53;;;;;;;14.85;4.13;;;;;;;-144.43;100.00;67396.00;5087267;28;20032;-61
2022/08/25 15:05:23;;;;;;;18.58;4.32;;;;;;;-144.43;100.00;67396.00;5080959;28;20033;-59
2022/08/25 15:09:09;;;;;;;16.20;4.13;;;;;;;-144.43;100.00;67396.00;5078217;28;20036;-61
2022/08/25 15:12:39;;;;;;;21.65;4.90;;;;;;;-144.43;100.00;67396.00;5079307;28;20372;-59
2022/08/25 15:16:05;;;;;;;21.08;4.80;;;;;;;-144.43;100.00;67396.00;5084193;28;20043;-64
2022/08/25 15:19:30;;;;;;;25.40;4.80;;;;;;;-144.43;100.00;67396.00;5091662;28;20478;-63
2022/08/25 15:22:55;;;;;;;22.40;4.97;;;;;;;-144.43;100.00;67396.00;5086315;28;20042;-62
2022/08/25 15:26:22;;;;;;;24.43;5.17;;;;;;;-144.43;100.00;67396.00;5084449;28;20040;-62
2022/08/25 15:29:48;;;;;;;15.60;4.45;;;;;;;-144.43;100.00;67396.00;5091126;28;20118;-64
2022/08/25 15:33:13;;;;;;;21.17;5.05;;;;;;;-144.43;100.00;67396.00;5075105;28;20051;-64
2022/08/25 15:36:39;;;;;;;18.80;4.53;;;;;;;-144.43;100.00;67396.00;5091507;28;20044;-64
2022/08/25 15:40:07;;;;;;;17.38;3.30;;;;;;;-144.43;100.00;67396.00;5089785;28;20028;-62
2022/08/25 15:43:34;;;;;;;16.63;3.45;;;;;;;-144.43;100.00;67396.00;5072990;28;20043;-64
2022/08/25 15:47:01;;;;;;;13.25;3.00;;;;;;;-144.43;100.00;67396.00;5076923;28;20033;-63
2022/08/25 15:50:26;;;;;;;9.98;2.30;;;;;;;-144.43;100.00;67396.00;5090867;28;20149;-62
2022/08/25 15:53:52;;;;;;;9.48;2.50;;;;;;;-144.43;100.00;67396.00;5087147;28;20025;-63
2022/08/25 15:57:17;;;;;;;7.72;2.35;;;;;;;-144.43;100.00;67396.00;5089274;28;20047;-63
2022/08/25 16:00:43;;;;;;;7.97;2.80;;;;;;;-144.43;100.00;67396.00;5092734;28;20032;-63
2022/08/25 16:04:09;;;;;;;14.45;3.25;;;;;;;-144.43;100.00;67396.00;5097328;28;20429;-64
2022/08/25 16:07:34;;;;;;;9.63;2.97;;;;;;;-144.43;100.00;67396.00;5090448;28;20028;-63